KDEH

Decorah Municipal Airport

Decorah, Iowa, USA
METAR KDEH 222115Z AUTO 30012G23KT 260V320 10SM CLR 18/M02 A3003 RMK AO2
Observed Flight Rules
Oct-22 @ 21:15 UTC (15 minutes ago) Visual Flight Rules
Wind Visibility Clouds
300° at 12 knots
 Gusting to 23 knots
10 miles
  • Clear skies
Temperatures Readings
Current 18°C / 64°F
Dewpoint -2°C / 28°F
Humidity 26%
Altimeter 30.03" Hg
Pressure 1017 hPa
Elevation 353
METAR KDEH 222115Z AUTO 30012G23KT 260V320 10SM CLR 18/M02 A3003 RMK AO2
Observed Flight Rules
Oct-22 @ 21:15 UTC
(15 minutes ago)
VFR
Wind Visibility
300° at 12 knots
 Gusting to 23 knots
10 miles
Clouds
  • Clear skies
Temperature Dewpoint
18°C / 64°F -2°C / 28°F
Humidity Altimeter Pressure
26% 30.03" Hg 1017 hPa